sensor_id;sensor_type;location;lat;lon;timestamp;P1;durP1;ratioP1;P2;durP2;ratioP2
13408;SDS011;6775;49.574;11.170;2023-03-17T00:01:19;2.03;;;1.40;;
13408;SDS011;6775;49.574;11.170;2023-03-17T00:03:47;1.87;;;1.40;;
13408;SDS011;6775;49.574;11.170;2023-03-17T00:06:17;2.60;;;1.57;;
13408;SDS011;6775;49.574;11.170;2023-03-17T00:08:50;1.73;;;1.40;;
13408;SDS011;6775;49.574;11.170;2023-03-17T00:11:19;2.03;;;1.27;;
13408;SDS011;6775;49.574;11.170;2023-03-17T00:13:47;1.40;;;1.30;;
13408;SDS011;6775;49.574;11.170;2023-03-17T00:16:16;1.57;;;1.30;;
13408;SDS011;6775;49.574;11.170;2023-03-17T00:18:47;1.50;;;1.40;;
13408;SDS011;6775;49.574;11.170;2023-03-17T00:21:17;1.33;;;1.23;;
13408;SDS011;6775;49.574;11.170;2023-03-17T00:23:51;1.20;;;1.10;;
13408;SDS011;6775;49.574;11.170;2023-03-17T00:26:21;1.20;;;1.10;;
13408;SDS011;6775;49.574;11.170;2023-03-17T00:28:50;1.40;;;1.23;;
13408;SDS011;6775;49.574;11.170;2023-03-17T00:31:20;1.43;;;1.23;;
13408;SDS011;6775;49.574;11.170;2023-03-17T00:33:50;1.43;;;1.33;;
13408;SDS011;6775;49.574;11.170;2023-03-17T00:36:20;1.40;;;1.30;;
13408;SDS011;6775;49.574;11.170;2023-03-17T00:38:50;1.43;;;1.33;;
13408;SDS011;6775;49.574;11.170;2023-03-17T00:41:18;1.40;;;1.30;;
13408;SDS011;6775;49.574;11.170;2023-03-17T00:43:48;1.90;;;1.43;;
13408;SDS011;6775;49.574;11.170;2023-03-17T00:46:17;1.53;;;1.23;;
13408;SDS011;6775;49.574;11.170;2023-03-17T00:48:48;1.93;;;1.40;;
13408;SDS011;6775;49.574;11.170;2023-03-17T00:51:16;1.77;;;1.20;;
13408;SDS011;6775;49.574;11.170;2023-03-17T00:53:44;2.00;;;1.10;;
13408;SDS011;6775;49.574;11.170;2023-03-17T00:56:12;1.73;;;1.20;;
13408;SDS011;6775;49.574;11.170;2023-03-17T00:58:42;1.17;;;1.03;;
13408;SDS011;6775;49.574;11.170;2023-03-17T01:01:11;1.57;;;1.10;;
13408;SDS011;6775;49.574;11.170;2023-03-17T01:03:39;1.77;;;1.20;;
13408;SDS011;6775;49.574;11.170;2023-03-17T01:06:09;2.93;;;1.50;;
13408;SDS011;6775;49.574;11.170;2023-03-17T01:08:39;1.17;;;1.00;;
13408;SDS011;6775;49.574;11.170;2023-03-17T01:11:12;2.03;;;1.50;;
13408;SDS011;6775;49.574;11.170;2023-03-17T01:13:43;1.77;;;1.40;;
13408;SDS011;6775;49.574;11.170;2023-03-17T01:16:13;2.73;;;1.60;;
13408;SDS011;6775;49.574;11.170;2023-03-17T01:18:42;2.13;;;1.50;;
13408;SDS011;6775;49.574;11.170;2023-03-17T01:21:10;1.53;;;1.30;;
13408;SDS011;6775;49.574;11.170;2023-03-17T01:23:39;2.07;;;1.30;;
13408;SDS011;6775;49.574;11.170;2023-03-17T01:26:07;1.87;;;1.30;;
13408;SDS011;6775;49.574;11.170;2023-03-17T01:28:34;2.00;;;1.40;;
13408;SDS011;6775;49.574;11.170;2023-03-17T01:31:02;1.30;;;0.97;;
13408;SDS011;6775;49.574;11.170;2023-03-17T01:33:32;3.23;;;1.40;;
13408;SDS011;6775;49.574;11.170;2023-03-17T01:36:00;1.87;;;1.40;;
13408;SDS011;6775;49.574;11.170;2023-03-17T01:38:28;1.63;;;1.23;;
13408;SDS011;6775;49.574;11.170;2023-03-17T01:40:56;2.37;;;1.47;;
13408;SDS011;6775;49.574;11.170;2023-03-17T01:43:25;1.63;;;1.53;;
13408;SDS011;6775;49.574;11.170;2023-03-17T01:46:15;2.57;;;1.50;;
13408;SDS011;6775;49.574;11.170;2023-03-17T01:48:50;2.33;;;1.40;;
13408;SDS011;6775;49.574;11.170;2023-03-17T01:51:39;1.53;;;1.43;;
13408;SDS011;6775;49.574;11.170;2023-03-17T01:54:16;1.40;;;1.30;;
13408;SDS011;6775;49.574;11.170;2023-03-17T01:56:48;1.50;;;1.40;;
13408;SDS011;6775;49.574;11.170;2023-03-17T01:59:18;1.87;;;1.50;;
13408;SDS011;6775;49.574;11.170;2023-03-17T02:01:51;2.90;;;1.40;;
13408;SDS011;6775;49.574;11.170;2023-03-17T02:04:25;1.20;;;1.00;;
13408;SDS011;6775;49.574;11.170;2023-03-17T02:06:53;4.40;;;1.43;;
13408;SDS011;6775;49.574;11.170;2023-03-17T02:09:24;1.37;;;1.13;;
13408;SDS011;6775;49.574;11.170;2023-03-17T02:11:54;2.13;;;1.37;;
13408;SDS011;6775;49.574;11.170;2023-03-17T02:14:22;1.70;;;1.37;;
13408;SDS011;6775;49.574;11.170;2023-03-17T02:16:50;3.17;;;1.30;;
13408;SDS011;6775;49.574;11.170;2023-03-17T02:19:18;2.33;;;1.80;;
13408;SDS011;6775;49.574;11.170;2023-03-17T02:21:48;1.73;;;1.40;;
13408;SDS011;6775;49.574;11.170;2023-03-17T02:24:19;1.53;;;1.40;;
13408;SDS011;6775;49.574;11.170;2023-03-17T02:26:51;2.03;;;1.30;;
13408;SDS011;6775;49.574;11.170;2023-03-17T02:29:21;1.83;;;1.50;;
13408;SDS011;6775;49.574;11.170;2023-03-17T02:31:49;2.07;;;1.40;;
13408;SDS011;6775;49.574;11.170;2023-03-17T02:34:18;1.70;;;1.40;;
13408;SDS011;6775;49.574;11.170;2023-03-17T02:36:47;1.90;;;1.20;;
13408;SDS011;6775;49.574;11.170;2023-03-17T02:39:15;2.27;;;1.30;;
13408;SDS011;6775;49.574;11.170;2023-03-17T02:41:43;3.23;;;1.50;;
13408;SDS011;6775;49.574;11.170;2023-03-17T02:44:12;1.27;;;1.17;;
13408;SDS011;6775;49.574;11.170;2023-03-17T02:46:40;2.47;;;1.47;;
13408;SDS011;6775;49.574;11.170;2023-03-17T02:49:07;2.33;;;1.67;;
13408;SDS011;6775;49.574;11.170;2023-03-17T02:51:35;1.40;;;1.20;;
13408;SDS011;6775;49.574;11.170;2023-03-17T02:54:05;2.33;;;1.40;;
13408;SDS011;6775;49.574;11.170;2023-03-17T02:56:32;3.93;;;1.60;;
13408;SDS011;6775;49.574;11.170;2023-03-17T02:59:00;2.03;;;1.37;;
13408;SDS011;6775;49.574;11.170;2023-03-17T03:01:28;3.23;;;1.40;;
13408;SDS011;6775;49.574;11.170;2023-03-17T03:03:56;1.40;;;1.30;;
13408;SDS011;6775;49.574;11.170;2023-03-17T03:06:24;1.33;;;1.10;;
13408;SDS011;6775;49.574;11.170;2023-03-17T03:08:52;2.47;;;1.33;;
13408;SDS011;6775;49.574;11.170;2023-03-17T03:11:22;1.63;;;1.50;;
13408;SDS011;6775;49.574;11.170;2023-03-17T03:13:49;3.60;;;1.70;;
13408;SDS011;6775;49.574;11.170;2023-03-17T03:16:17;2.17;;;1.67;;
13408;SDS011;6775;49.574;11.170;2023-03-17T03:18:46;1.17;;;1.00;;
13408;SDS011;6775;49.574;11.170;2023-03-17T03:21:14;2.00;;;1.50;;
13408;SDS011;6775;49.574;11.170;2023-03-17T03:23:41;2.37;;;1.53;;
13408;SDS011;6775;49.574;11.170;2023-03-17T03:26:09;1.50;;;1.20;;
13408;SDS011;6775;49.574;11.170;2023-03-17T03:28:38;1.50;;;1.27;;
13408;SDS011;6775;49.574;11.170;2023-03-17T03:31:06;1.90;;;1.63;;
13408;SDS011;6775;49.574;11.170;2023-03-17T03:33:34;1.43;;;1.07;;
13408;SDS011;6775;49.574;11.170;2023-03-17T03:36:02;2.30;;;1.50;;
13408;SDS011;6775;49.574;11.170;2023-03-17T03:38:30;4.07;;;1.50;;
13408;SDS011;6775;49.574;11.170;2023-03-17T03:40:58;2.13;;;1.33;;
13408;SDS011;6775;49.574;11.170;2023-03-17T03:43:26;1.33;;;1.10;;
13408;SDS011;6775;49.574;11.170;2023-03-17T03:45:55;1.60;;;1.27;;
13408;SDS011;6775;49.574;11.170;2023-03-17T03:48:23;2.77;;;1.50;;
13408;SDS011;6775;49.574;11.170;2023-03-17T03:50:54;1.60;;;1.37;;
13408;SDS011;6775;49.574;11.170;2023-03-17T03:53:23;1.40;;;1.30;;
13408;SDS011;6775;49.574;11.170;2023-03-17T03:55:51;2.63;;;1.30;;
13408;SDS011;6775;49.574;11.170;2023-03-17T03:58:19;2.50;;;1.37;;
13408;SDS011;6775;49.574;11.170;2023-03-17T04:00:47;1.37;;;1.27;;
13408;SDS011;6775;49.574;11.170;2023-03-17T04:03:16;1.40;;;1.30;;
13408;SDS011;6775;49.574;11.170;2023-03-17T04:05:44;1.80;;;1.40;;
13408;SDS011;6775;49.574;11.170;2023-03-17T04:08:12;2.03;;;1.23;;
13408;SDS011;6775;49.574;11.170;2023-03-17T04:10:40;1.87;;;1.27;;
13408;SDS011;6775;49.574;11.170;2023-03-17T04:13:08;1.73;;;1.30;;
13408;SDS011;6775;49.574;11.170;2023-03-17T04:15:35;1.97;;;1.30;;
13408;SDS011;6775;49.574;11.170;2023-03-17T04:18:03;3.10;;;1.73;;
13408;SDS011;6775;49.574;11.170;2023-03-17T04:20:32;1.47;;;1.10;;
13408;SDS011;6775;49.574;11.170;2023-03-17T04:23:00;3.03;;;1.60;;
13408;SDS011;6775;49.574;11.170;2023-03-17T04:25:28;3.57;;;1.43;;
13408;SDS011;6775;49.574;11.170;2023-03-17T04:27:56;2.33;;;1.60;;
13408;SDS011;6775;49.574;11.170;2023-03-17T04:30:24;2.10;;;1.60;;
13408;SDS011;6775;49.574;11.170;2023-03-17T04:32:52;2.27;;;1.40;;
13408;SDS011;6775;49.574;11.170;2023-03-17T04:35:20;2.53;;;1.47;;
13408;SDS011;6775;49.574;11.170;2023-03-17T04:37:50;1.90;;;1.50;;
13408;SDS011;6775;49.574;11.170;2023-03-17T04:40:18;2.70;;;1.67;;
13408;SDS011;6775;49.574;11.170;2023-03-17T04:42:46;3.37;;;1.30;;
13408;SDS011;6775;49.574;11.170;2023-03-17T04:45:14;1.57;;;1.37;;
13408;SDS011;6775;49.574;11.170;2023-03-17T04:47:41;2.20;;;1.53;;
13408;SDS011;6775;49.574;11.170;2023-03-17T04:50:11;2.67;;;1.40;;
13408;SDS011;6775;49.574;11.170;2023-03-17T04:52:40;2.03;;;1.37;;
13408;SDS011;6775;49.574;11.170;2023-03-17T04:55:09;2.27;;;1.37;;
13408;SDS011;6775;49.574;11.170;2023-03-17T04:57:38;1.23;;;1.13;;
13408;SDS011;6775;49.574;11.170;2023-03-17T05:00:06;1.63;;;1.20;;
13408;SDS011;6775;49.574;11.170;2023-03-17T05:02:35;3.27;;;1.50;;
13408;SDS011;6775;49.574;11.170;2023-03-17T05:05:04;1.47;;;1.33;;
13408;SDS011;6775;49.574;11.170;2023-03-17T05:07:32;1.33;;;1.23;;
13408;SDS011;6775;49.574;11.170;2023-03-17T05:09:59;2.60;;;1.43;;
13408;SDS011;6775;49.574;11.170;2023-03-17T05:12:29;1.77;;;1.40;;
13408;SDS011;6775;49.574;11.170;2023-03-17T05:14:57;1.60;;;1.20;;
13408;SDS011;6775;49.574;11.170;2023-03-17T05:17:25;2.07;;;1.23;;
13408;SDS011;6775;49.574;11.170;2023-03-17T05:19:52;2.17;;;1.50;;
13408;SDS011;6775;49.574;11.170;2023-03-17T05:22:20;2.13;;;1.30;;
13408;SDS011;6775;49.574;11.170;2023-03-17T05:24:48;1.93;;;1.27;;
13408;SDS011;6775;49.574;11.170;2023-03-17T05:27:16;1.83;;;1.50;;
13408;SDS011;6775;49.574;11.170;2023-03-17T05:29:45;1.97;;;1.40;;
13408;SDS011;6775;49.574;11.170;2023-03-17T05:32:13;1.60;;;1.30;;
13408;SDS011;6775;49.574;11.170;2023-03-17T05:34:41;1.80;;;1.47;;
13408;SDS011;6775;49.574;11.170;2023-03-17T05:37:10;3.00;;;1.70;;
13408;SDS011;6775;49.574;11.170;2023-03-17T05:39:39;3.30;;;1.60;;
13408;SDS011;6775;49.574;11.170;2023-03-17T05:42:07;1.30;;;1.20;;
13408;SDS011;6775;49.574;11.170;2023-03-17T05:44:34;1.47;;;1.30;;
13408;SDS011;6775;49.574;11.170;2023-03-17T05:47:04;1.57;;;1.23;;
13408;SDS011;6775;49.574;11.170;2023-03-17T05:49:33;2.73;;;1.60;;
13408;SDS011;6775;49.574;11.170;2023-03-17T05:52:04;3.53;;;1.50;;
13408;SDS011;6775;49.574;11.170;2023-03-17T05:54:31;1.93;;;1.30;;
13408;SDS011;6775;49.574;11.170;2023-03-17T05:56:59;1.80;;;1.20;;
13408;SDS011;6775;49.574;11.170;2023-03-17T05:59:27;1.60;;;1.13;;
13408;SDS011;6775;49.574;11.170;2023-03-17T06:01:55;1.67;;;1.20;;
13408;SDS011;6775;49.574;11.170;2023-03-17T06:04:25;2.63;;;1.20;;
13408;SDS011;6775;49.574;11.170;2023-03-17T06:06:52;3.03;;;1.27;;
13408;SDS011;6775;49.574;11.170;2023-03-17T06:09:20;1.53;;;1.40;;
13408;SDS011;6775;49.574;11.170;2023-03-17T06:11:48;3.17;;;1.40;;
13408;SDS011;6775;49.574;11.170;2023-03-17T06:14:16;2.37;;;1.30;;
13408;SDS011;6775;49.574;11.170;2023-03-17T06:16:44;3.67;;;1.60;;
13408;SDS011;6775;49.574;11.170;2023-03-17T06:19:12;2.27;;;1.33;;
13408;SDS011;6775;49.574;11.170;2023-03-17T06:21:41;2.87;;;1.70;;
13408;SDS011;6775;49.574;11.170;2023-03-17T06:24:09;2.87;;;1.50;;
13408;SDS011;6775;49.574;11.170;2023-03-17T06:26:37;2.63;;;1.50;;
13408;SDS011;6775;49.574;11.170;2023-03-17T06:29:05;2.57;;;1.27;;
13408;SDS011;6775;49.574;11.170;2023-03-17T06:31:34;3.17;;;1.60;;
13408;SDS011;6775;49.574;11.170;2023-03-17T06:34:02;1.17;;;1.07;;
13408;SDS011;6775;49.574;11.170;2023-03-17T06:36:30;1.73;;;1.30;;
13408;SDS011;6775;49.574;11.170;2023-03-17T06:39:00;1.10;;;1.00;;
13408;SDS011;6775;49.574;11.170;2023-03-17T06:41:27;2.47;;;1.20;;
13408;SDS011;6775;49.574;11.170;2023-03-17T06:43:55;1.50;;;1.37;;
13408;SDS011;6775;49.574;11.170;2023-03-17T06:46:23;2.70;;;1.17;;
13408;SDS011;6775;49.574;11.170;2023-03-17T06:48:51;2.23;;;1.10;;
13408;SDS011;6775;49.574;11.170;2023-03-17T06:51:19;1.60;;;1.10;;
13408;SDS011;6775;49.574;11.170;2023-03-17T06:53:47;2.23;;;1.40;;
13408;SDS011;6775;49.574;11.170;2023-03-17T06:56:16;2.77;;;1.40;;
13408;SDS011;6775;49.574;11.170;2023-03-17T06:58:55;3.43;;;1.53;;
13408;SDS011;6775;49.574;11.170;2023-03-17T07:01:23;3.13;;;1.57;;
13408;SDS011;6775;49.574;11.170;2023-03-17T07:03:52;2.60;;;1.27;;
13408;SDS011;6775;49.574;11.170;2023-03-17T07:06:20;1.33;;;1.20;;
13408;SDS011;6775;49.574;11.170;2023-03-17T07:08:48;3.03;;;1.30;;
13408;SDS011;6775;49.574;11.170;2023-03-17T07:11:18;2.43;;;1.47;;
13408;SDS011;6775;49.574;11.170;2023-03-17T07:13:48;3.63;;;1.20;;
13408;SDS011;6775;49.574;11.170;2023-03-17T07:16:17;1.23;;;1.00;;
13408;SDS011;6775;49.574;11.170;2023-03-17T07:18:46;1.43;;;1.10;;
13408;SDS011;6775;49.574;11.170;2023-03-17T07:21:14;1.43;;;1.30;;
13408;SDS011;6775;49.574;11.170;2023-03-17T07:23:42;2.50;;;1.10;;
13408;SDS011;6775;49.574;11.170;2023-03-17T07:26:10;1.80;;;1.00;;
13408;SDS011;6775;49.574;11.170;2023-03-17T07:28:39;2.23;;;1.13;;
13408;SDS011;6775;49.574;11.170;2023-03-17T07:31:07;1.73;;;1.20;;
13408;SDS011;6775;49.574;11.170;2023-03-17T07:33:39;2.40;;;1.20;;
13408;SDS011;6775;49.574;11.170;2023-03-17T07:36:07;3.67;;;1.23;;
13408;SDS011;6775;49.574;11.170;2023-03-17T07:38:35;2.20;;;1.20;;
13408;SDS011;6775;49.574;11.170;2023-03-17T07:41:03;1.63;;;1.20;;
13408;SDS011;6775;49.574;11.170;2023-03-17T07:43:35;2.80;;;1.33;;
13408;SDS011;6775;49.574;11.170;2023-03-17T07:46:04;1.90;;;1.40;;
13408;SDS011;6775;49.574;11.170;2023-03-17T07:48:33;1.70;;;1.10;;
13408;SDS011;6775;49.574;11.170;2023-03-17T07:51:05;4.10;;;1.20;;
13408;SDS011;6775;49.574;11.170;2023-03-17T07:53:35;1.63;;;1.20;;
13408;SDS011;6775;49.574;11.170;2023-03-17T07:56:03;1.90;;;1.30;;
13408;SDS011;6775;49.574;11.170;2023-03-17T07:58:32;1.30;;;1.10;;
13408;SDS011;6775;49.574;11.170;2023-03-17T08:01:00;3.00;;;1.10;;
13408;SDS011;6775;49.574;11.170;2023-03-17T08:03:29;1.47;;;1.03;;
13408;SDS011;6775;49.574;11.170;2023-03-17T08:05:57;1.30;;;1.17;;
13408;SDS011;6775;49.574;11.170;2023-03-17T08:08:26;2.13;;;1.07;;
13408;SDS011;6775;49.574;11.170;2023-03-17T08:10:57;2.13;;;1.10;;
13408;SDS011;6775;49.574;11.170;2023-03-17T08:13:28;3.17;;;1.40;;
13408;SDS011;6775;49.574;11.170;2023-03-17T08:15:56;1.90;;;0.87;;
13408;SDS011;6775;49.574;11.170;2023-03-17T08:18:24;2.67;;;1.30;;
13408;SDS011;6775;49.574;11.170;2023-03-17T08:20:54;1.87;;;1.20;;
13408;SDS011;6775;49.574;11.170;2023-03-17T08:23:22;1.33;;;1.10;;
13408;SDS011;6775;49.574;11.170;2023-03-17T08:25:54;1.97;;;1.30;;
13408;SDS011;6775;49.574;11.170;2023-03-17T08:28:23;1.37;;;1.20;;
13408;SDS011;6775;49.574;11.170;2023-03-17T08:30:51;1.10;;;1.00;;
13408;SDS011;6775;49.574;11.170;2023-03-17T08:33:19;1.63;;;1.20;;
13408;SDS011;6775;49.574;11.170;2023-03-17T08:35:47;1.30;;;1.10;;
13408;SDS011;6775;49.574;11.170;2023-03-17T08:38:17;1.77;;;0.80;;
13408;SDS011;6775;49.574;11.170;2023-03-17T08:40:45;1.47;;;1.00;;
13408;SDS011;6775;49.574;11.170;2023-03-17T08:43:15;1.27;;;0.90;;
13408;SDS011;6775;49.574;11.170;2023-03-17T08:45:43;2.17;;;1.20;;
13408;SDS011;6775;49.574;11.170;2023-03-17T08:48:11;1.30;;;1.20;;
13408;SDS011;6775;49.574;11.170;2023-03-17T08:50:39;2.83;;;1.10;;
13408;SDS011;6775;49.574;11.170;2023-03-17T08:53:07;1.20;;;1.10;;
13408;SDS011;6775;49.574;11.170;2023-03-17T08:55:37;1.30;;;1.10;;
13408;SDS011;6775;49.574;11.170;2023-03-17T08:58:05;1.47;;;1.10;;
13408;SDS011;6775;49.574;11.170;2023-03-17T09:00:32;1.73;;;0.90;;
13408;SDS011;6775;49.574;11.170;2023-03-17T09:03:01;1.33;;;1.00;;
13408;SDS011;6775;49.574;11.170;2023-03-17T09:05:29;2.13;;;1.00;;
13408;SDS011;6775;49.574;11.170;2023-03-17T09:07:57;1.83;;;0.90;;
13408;SDS011;6775;49.574;11.170;2023-03-17T09:10:25;1.33;;;1.00;;
13408;SDS011;6775;49.574;11.170;2023-03-17T09:12:55;1.23;;;1.00;;
13408;SDS011;6775;49.574;11.170;2023-03-17T09:15:28;1.37;;;1.00;;
13408;SDS011;6775;49.574;11.170;2023-03-17T09:17:56;2.17;;;0.93;;
13408;SDS011;6775;49.574;11.170;2023-03-17T09:20:24;0.83;;;0.80;;
13408;SDS011;6775;49.574;11.170;2023-03-17T09:22:52;2.50;;;1.13;;
13408;SDS011;6775;49.574;11.170;2023-03-17T09:25:21;2.13;;;0.90;;
13408;SDS011;6775;49.574;11.170;2023-03-17T09:27:49;2.00;;;1.20;;
13408;SDS011;6775;49.574;11.170;2023-03-17T09:30:19;1.33;;;1.00;;
13408;SDS011;6775;49.574;11.170;2023-03-17T09:32:47;1.57;;;1.00;;
13408;SDS011;6775;49.574;11.170;2023-03-17T09:35:15;1.83;;;0.90;;
13408;SDS011;6775;49.574;11.170;2023-03-17T09:37:42;1.03;;;0.90;;
13408;SDS011;6775;49.574;11.170;2023-03-17T09:40:11;2.40;;;1.27;;
13408;SDS011;6775;49.574;11.170;2023-03-17T09:42:46;1.00;;;0.90;;
13408;SDS011;6775;49.574;11.170;2023-03-17T09:45:25;1.00;;;0.90;;
13408;SDS011;6775;49.574;11.170;2023-03-17T09:48:09;1.27;;;0.90;;
13408;SDS011;6775;49.574;11.170;2023-03-17T09:50:43;1.87;;;1.13;;
13408;SDS011;6775;49.574;11.170;2023-03-17T09:53:16;1.70;;;1.10;;
13408;SDS011;6775;49.574;11.170;2023-03-17T09:55:49;1.33;;;0.80;;
13408;SDS011;6775;49.574;11.170;2023-03-17T09:58:19;1.00;;;0.90;;
13408;SDS011;6775;49.574;11.170;2023-03-17T10:00:53;2.10;;;0.77;;
13408;SDS011;6775;49.574;11.170;2023-03-17T10:03:24;2.30;;;1.30;;
13408;SDS011;6775;49.574;11.170;2023-03-17T10:05:53;1.83;;;0.80;;
13408;SDS011;6775;49.574;11.170;2023-03-17T10:08:26;2.57;;;1.20;;
13408;SDS011;6775;49.574;11.170;2023-03-17T10:10:59;1.87;;;0.90;;
13408;SDS011;6775;49.574;11.170;2023-03-17T10:13:38;1.40;;;0.70;;
13408;SDS011;6775;49.574;11.170;2023-03-17T10:16:17;1.03;;;0.90;;
13408;SDS011;6775;49.574;11.170;2023-03-17T10:18:49;2.00;;;0.83;;
13408;SDS011;6775;49.574;11.170;2023-03-17T10:21:20;3.00;;;0.80;;
13408;SDS011;6775;49.574;11.170;2023-03-17T10:23:52;1.00;;;0.80;;
13408;SDS011;6775;49.574;11.170;2023-03-17T10:26:24;1.97;;;0.90;;
13408;SDS011;6775;49.574;11.170;2023-03-17T10:28:56;1.23;;;1.00;;
13408;SDS011;6775;49.574;11.170;2023-03-17T10:31:27;1.43;;;0.80;;
13408;SDS011;6775;49.574;11.170;2023-03-17T10:34:02;1.30;;;0.80;;
13408;SDS011;6775;49.574;11.170;2023-03-17T10:36:39;0.90;;;0.83;;
13408;SDS011;6775;49.574;11.170;2023-03-17T10:39:09;0.70;;;0.70;;
13408;SDS011;6775;49.574;11.170;2023-03-17T10:41:40;1.73;;;0.70;;
13408;SDS011;6775;49.574;11.170;2023-03-17T10:44:21;1.37;;;0.70;;
13408;SDS011;6775;49.574;11.170;2023-03-17T10:47:17;1.77;;;0.70;;
13408;SDS011;6775;49.574;11.170;2023-03-17T10:49:50;0.53;;;0.53;;
13408;SDS011;6775;49.574;11.170;2023-03-17T10:52:19;1.23;;;0.80;;
13408;SDS011;6775;49.574;11.170;2023-03-17T10:54:52;1.00;;;0.60;;
13408;SDS011;6775;49.574;11.170;2023-03-17T10:57:20;0.80;;;0.70;;
13408;SDS011;6775;49.574;11.170;2023-03-17T10:59:49;0.60;;;0.60;;
13408;SDS011;6775;49.574;11.170;2023-03-17T11:02:26;0.73;;;0.60;;
13408;SDS011;6775;49.574;11.170;2023-03-17T11:04:57;0.93;;;0.60;;
13408;SDS011;6775;49.574;11.170;2023-03-17T11:07:28;1.60;;;0.70;;
13408;SDS011;6775;49.574;11.170;2023-03-17T11:10:00;2.33;;;0.83;;
13408;SDS011;6775;49.574;11.170;2023-03-17T11:12:33;0.87;;;0.70;;
13408;SDS011;6775;49.574;11.170;2023-03-17T11:15:05;0.67;;;0.60;;
13408;SDS011;6775;49.574;11.170;2023-03-17T11:17:42;1.80;;;0.60;;
13408;SDS011;6775;49.574;11.170;2023-03-17T11:20:19;1.33;;;0.60;;
13408;SDS011;6775;49.574;11.170;2023-03-17T11:23:05;0.73;;;0.60;;
13408;SDS011;6775;49.574;11.170;2023-03-17T11:25:41;1.93;;;0.63;;
13408;SDS011;6775;49.574;11.170;2023-03-17T11:28:14;0.90;;;0.80;;
13408;SDS011;6775;49.574;11.170;2023-03-17T11:30:50;0.90;;;0.63;;
13408;SDS011;6775;49.574;11.170;2023-03-17T11:33:32;0.77;;;0.70;;
13408;SDS011;6775;49.574;11.170;2023-03-17T11:36:08;1.23;;;0.60;;
13408;SDS011;6775;49.574;11.170;2023-03-17T11:38:49;0.97;;;0.80;;
13408;SDS011;6775;49.574;11.170;2023-03-17T11:41:28;0.50;;;0.50;;
13408;SDS011;6775;49.574;11.170;2023-03-17T11:47:26;1.07;;;0.70;;
13408;SDS011;6775;49.574;11.170;2023-03-17T11:50:10;0.90;;;0.70;;
13408;SDS011;6775;49.574;11.170;2023-03-17T11:52:51;1.27;;;0.70;;
13408;SDS011;6775;49.574;11.170;2023-03-17T11:55:35;1.23;;;0.80;;
13408;SDS011;6775;49.574;11.170;2023-03-17T11:58:10;1.67;;;0.77;;
13408;SDS011;6775;49.574;11.170;2023-03-17T12:00:45;1.73;;;0.70;;
13408;SDS011;6775;49.574;11.170;2023-03-17T12:03:18;1.13;;;0.70;;
13408;SDS011;6775;49.574;11.170;2023-03-17T12:05:53;0.83;;;0.70;;
13408;SDS011;6775;49.574;11.170;2023-03-17T12:08:26;3.43;;;0.70;;
13408;SDS011;6775;49.574;11.170;2023-03-17T12:11:01;1.90;;;0.90;;
13408;SDS011;6775;49.574;11.170;2023-03-17T12:13:36;0.73;;;0.73;;
13408;SDS011;6775;49.574;11.170;2023-03-17T12:16:08;0.90;;;0.73;;
13408;SDS011;6775;49.574;11.170;2023-03-17T12:18:44;1.30;;;1.10;;
13408;SDS011;6775;49.574;11.170;2023-03-17T12:21:23;0.90;;;0.60;;
13408;SDS011;6775;49.574;11.170;2023-03-17T12:23:58;0.80;;;0.80;;
13408;SDS011;6775;49.574;11.170;2023-03-17T12:26:32;1.20;;;0.83;;
13408;SDS011;6775;49.574;11.170;2023-03-17T12:29:04;1.10;;;1.00;;
13408;SDS011;6775;49.574;11.170;2023-03-17T12:31:40;0.77;;;0.67;;
13408;SDS011;6775;49.574;11.170;2023-03-17T12:34:12;1.37;;;0.80;;
13408;SDS011;6775;49.574;11.170;2023-03-17T12:36:48;1.93;;;0.90;;
13408;SDS011;6775;49.574;11.170;2023-03-17T12:39:17;4.13;;;1.00;;
13408;SDS011;6775;49.574;11.170;2023-03-17T12:44:51;1.53;;;0.70;;
13408;SDS011;6775;49.574;11.170;2023-03-17T12:47:35;2.43;;;2.23;;
13408;SDS011;6775;49.574;11.170;2023-03-17T12:50:36;0.93;;;0.80;;
13408;SDS011;6775;49.574;11.170;2023-03-17T12:53:20;1.10;;;0.67;;
13408;SDS011;6775;49.574;11.170;2023-03-17T12:55:52;1.63;;;0.80;;
13408;SDS011;6775;49.574;11.170;2023-03-17T12:58:25;2.40;;;0.73;;
13408;SDS011;6775;49.574;11.170;2023-03-17T13:01:00;2.10;;;0.80;;
13408;SDS011;6775;49.574;11.170;2023-03-17T13:03:35;1.10;;;0.60;;
13408;SDS011;6775;49.574;11.170;2023-03-17T13:06:14;0.97;;;0.70;;
13408;SDS011;6775;49.574;11.170;2023-03-17T13:08:47;0.80;;;0.70;;
13408;SDS011;6775;49.574;11.170;2023-03-17T13:11:18;1.00;;;0.70;;
13408;SDS011;6775;49.574;11.170;2023-03-17T13:13:56;1.00;;;0.70;;
13408;SDS011;6775;49.574;11.170;2023-03-17T13:16:40;1.00;;;0.70;;
13408;SDS011;6775;49.574;11.170;2023-03-17T13:19:13;1.40;;;0.77;;
13408;SDS011;6775;49.574;11.170;2023-03-17T13:21:44;1.40;;;0.87;;
13408;SDS011;6775;49.574;11.170;2023-03-17T13:27:14;2.07;;;1.00;;
13408;SDS011;6775;49.574;11.170;2023-03-17T13:33:17;1.53;;;0.87;;
13408;SDS011;6775;49.574;11.170;2023-03-17T13:35:55;0.83;;;0.70;;
13408;SDS011;6775;49.574;11.170;2023-03-17T13:38:42;2.63;;;0.80;;
13408;SDS011;6775;49.574;11.170;2023-03-17T13:41:55;1.20;;;0.90;;
13408;SDS011;6775;49.574;11.170;2023-03-17T13:47:39;1.53;;;1.10;;
13408;SDS011;6775;49.574;11.170;2023-03-17T13:50:11;1.20;;;1.00;;
13408;SDS011;6775;49.574;11.170;2023-03-17T13:52:44;1.37;;;0.90;;
13408;SDS011;6775;49.574;11.170;2023-03-17T13:55:30;1.37;;;0.90;;
13408;SDS011;6775;49.574;11.170;2023-03-17T14:01:00;1.77;;;1.17;;
13408;SDS011;6775;49.574;11.170;2023-03-17T14:03:39;0.97;;;0.80;;
13408;SDS011;6775;49.574;11.170;2023-03-17T14:06:10;1.50;;;1.00;;
13408;SDS011;6775;49.574;11.170;2023-03-17T14:08:42;1.00;;;0.90;;
13408;SDS011;6775;49.574;11.170;2023-03-17T14:11:21;4.40;;;1.00;;
13408;SDS011;6775;49.574;11.170;2023-03-17T14:14:08;1.73;;;0.70;;
13408;SDS011;6775;49.574;11.170;2023-03-17T14:16:59;0.70;;;0.50;;
13408;SDS011;6775;49.574;11.170;2023-03-17T14:19:33;1.43;;;0.90;;
13408;SDS011;6775;49.574;11.170;2023-03-17T14:22:17;2.00;;;0.80;;
13408;SDS011;6775;49.574;11.170;2023-03-17T14:24:49;1.67;;;0.83;;
13408;SDS011;6775;49.574;11.170;2023-03-17T14:27:19;1.13;;;0.60;;
13408;SDS011;6775;49.574;11.170;2023-03-17T14:29:50;1.47;;;0.80;;
13408;SDS011;6775;49.574;11.170;2023-03-17T14:32:19;1.30;;;0.80;;
13408;SDS011;6775;49.574;11.170;2023-03-17T14:34:52;0.90;;;0.70;;
13408;SDS011;6775;49.574;11.170;2023-03-17T14:37:21;0.93;;;0.70;;
13408;SDS011;6775;49.574;11.170;2023-03-17T14:39:50;0.70;;;0.60;;
13408;SDS011;6775;49.574;11.170;2023-03-17T14:42:24;1.27;;;0.80;;
13408;SDS011;6775;49.574;11.170;2023-03-17T14:45:00;2.10;;;0.80;;
13408;SDS011;6775;49.574;11.170;2023-03-17T14:47:30;1.77;;;0.87;;
13408;SDS011;6775;49.574;11.170;2023-03-17T14:50:05;0.77;;;0.70;;
13408;SDS011;6775;49.574;11.170;2023-03-17T14:52:42;1.67;;;0.80;;
13408;SDS011;6775;49.574;11.170;2023-03-17T14:55:11;1.60;;;0.70;;
13408;SDS011;6775;49.574;11.170;2023-03-17T14:57:40;1.00;;;0.77;;
13408;SDS011;6775;49.574;11.170;2023-03-17T15:00:31;1.73;;;0.70;;
13408;SDS011;6775;49.574;11.170;2023-03-17T15:03:03;1.67;;;0.70;;
13408;SDS011;6775;49.574;11.170;2023-03-17T15:05:45;1.90;;;0.70;;
13408;SDS011;6775;49.574;11.170;2023-03-17T15:08:27;1.93;;;0.73;;
13408;SDS011;6775;49.574;11.170;2023-03-17T15:10:56;2.23;;;0.70;;
13408;SDS011;6775;49.574;11.170;2023-03-17T15:13:25;0.70;;;0.50;;
13408;SDS011;6775;49.574;11.170;2023-03-17T15:15:55;0.60;;;0.60;;
13408;SDS011;6775;49.574;11.170;2023-03-17T15:18:24;1.00;;;0.80;;
13408;SDS011;6775;49.574;11.170;2023-03-17T15:20:52;1.00;;;0.70;;
13408;SDS011;6775;49.574;11.170;2023-03-17T15:23:22;0.60;;;0.53;;
13408;SDS011;6775;49.574;11.170;2023-03-17T15:25:52;0.87;;;0.80;;
13408;SDS011;6775;49.574;11.170;2023-03-17T15:28:23;0.70;;;0.63;;
13408;SDS011;6775;49.574;11.170;2023-03-17T15:30:55;0.73;;;0.70;;